Weather at Ioannina Airport

Public forecast

Using degrees Celsius for public forecast. Weather courtesy of forecast.io.

Current aviation weather report (METAR) for Ioannina Airport

2022/11/27 08:20 (retrieved 28 minutes ago)

LGIO 270820Z AUTO 05006KT 360V090 //// // ////// 11/01 Q1019 RE//

Closest aviation forecast (TAF) to Ioannina Airport

Closest forecast is Ioannis Kapodistrias International Airport, 42.5 nm (78.7 km) W.

2022/11/27 06:12 (retrieved 3 hours ago)

TAF LGKR 270500Z 2706/2806 06014KT 9999 SCT020 BKN070 TEMPO 2706/2712 06012G22KT